createdAt,value
2018-12-03T00:00:26.333Z,93.91
2018-12-03T00:02:59.021Z,94.11
2018-12-03T00:05:30.340Z,94.31
2018-12-03T00:07:58.465Z,94.39
2018-12-03T00:10:26.790Z,93.76
2018-12-03T00:12:54.991Z,93.58
2018-12-03T00:15:23.133Z,93.68
2018-12-03T00:17:51.576Z,94.12
2018-12-03T00:20:23.121Z,94.50
2018-12-03T00:22:51.258Z,94.69
2018-12-03T00:25:19.455Z,94.51
2018-12-03T00:27:51.738Z,94.47
2018-12-03T00:30:19.959Z,94.60
2018-12-03T00:32:48.015Z,94.74
2018-12-03T00:35:16.167Z,95.35
2018-12-03T00:37:44.250Z,94.90
2018-12-03T00:40:12.453Z,94.67
2018-12-03T00:42:40.520Z,94.60
2018-12-03T00:45:08.990Z,95.05
2018-12-03T00:47:37.010Z,94.83
2018-12-03T00:50:05.476Z,94.82
2018-12-03T00:52:33.625Z,95.07
2018-12-03T00:55:01.918Z,95.07
2018-12-03T00:57:30.025Z,95.41
2018-12-03T00:59:58.400Z,95.33
2018-12-03T01:02:26.550Z,95.11
2018-12-03T01:04:55.225Z,94.81
2018-12-03T01:07:23.514Z,95.38
2018-12-03T01:09:51.940Z,95.28
2018-12-03T01:12:20.150Z,95.38
2018-12-03T01:14:48.366Z,95.95
2018-12-03T01:17:16.515Z,95.12
2018-12-03T01:19:44.697Z,95.36
2018-12-03T01:22:12.867Z,95.76
2018-12-03T01:24:41.841Z,95.12
2018-12-03T01:27:09.887Z,95.52
2018-12-03T01:29:37.975Z,95.70
2018-12-03T01:32:06.192Z,95.44
2018-12-03T01:34:35.270Z,95.42
2018-12-03T01:37:03.436Z,95.44
2018-12-03T01:39:32.040Z,95.12
2018-12-03T01:42:00.133Z,95.96
2018-12-03T01:44:28.486Z,95.51
2018-12-03T01:46:56.652Z,95.59
2018-12-03T01:49:24.835Z,96.38
2018-12-03T01:51:52.945Z,96.32
2018-12-03T01:54:21.067Z,96.32
2018-12-03T01:56:49.186Z,95.95
2018-12-03T01:59:17.370Z,95.68
2018-12-03T02:01:45.605Z,96.13
2018-12-03T02:04:13.640Z,96.01
2018-12-03T02:06:41.735Z,96.44
2018-12-03T02:09:09.965Z,96.01
2018-12-03T02:11:41.495Z,96.38
2018-12-03T02:14:09.885Z,96.50
2018-12-03T02:16:38.279Z,96.13
2018-12-03T02:19:06.396Z,95.20
2018-12-03T02:21:34.585Z,95.58
2018-12-03T02:24:03.173Z,96.11
2018-12-03T02:26:31.312Z,95.89
2018-12-03T02:28:59.421Z,95.42
2018-12-03T02:31:27.782Z,95.15
2018-12-03T02:33:55.835Z,95.07
2018-12-03T02:36:23.957Z,95.14
2018-12-03T02:38:52.102Z,95.36
2018-12-03T02:41:21.037Z,94.80
2018-12-03T02:43:49.147Z,95.16
2018-12-03T02:46:17.642Z,94.73
2018-12-03T02:48:45.750Z,95.12
2018-12-03T02:51:14.332Z,94.75
2018-12-03T02:53:42.461Z,93.98
2018-12-03T02:56:10.606Z,94.29
2018-12-03T02:58:39.713Z,94.31
2018-12-03T03:01:08.131Z,94.03
2018-12-03T03:03:36.705Z,94.68
2018-12-03T03:06:05.021Z,94.54
2018-12-03T03:08:34.005Z,95.25
2018-12-03T03:11:02.179Z,95.09
2018-12-03T03:13:30.523Z,95.40
2018-12-03T03:15:58.698Z,95.09
2018-12-03T03:18:26.994Z,95.23
2018-12-03T03:20:55.398Z,95.24
2018-12-03T03:23:23.635Z,95.10
2018-12-03T03:25:51.885Z,95.35
2018-12-03T03:28:19.999Z,95.01
2018-12-03T03:30:48.296Z,95.20
2018-12-03T03:33:16.443Z,95.63
2018-12-03T03:35:44.570Z,95.66
2018-12-03T03:38:12.585Z,95.32
2018-12-03T03:40:41.179Z,95.26
2018-12-03T03:43:11.331Z,95.22
2018-12-03T03:45:44.287Z,95.09
2018-12-03T03:48:12.666Z,95.46
2018-12-03T03:50:41.051Z,95.52
2018-12-03T03:53:12.522Z,95.56
2018-12-03T03:55:40.920Z,95.67
2018-12-03T03:58:09.394Z,95.84
2018-12-03T04:00:37.586Z,95.68
2018-12-03T04:03:06.086Z,95.81
2018-12-03T04:05:34.477Z,95.69
2018-12-03T04:08:02.720Z,96.15
2018-12-03T04:10:31.119Z,95.34
2018-12-03T04:13:00.006Z,95.54
2018-12-03T04:15:28.959Z,96.03
2018-12-03T04:17:57.530Z,95.05
2018-12-03T04:20:26.081Z,95.67
2018-12-03T04:22:58.734Z,95.83
2018-12-03T04:25:29.866Z,94.36
2018-12-03T04:27:58.315Z,94.63
2018-12-03T04:30:26.555Z,94.38
2018-12-03T04:32:57.195Z,94.54
2018-12-03T04:35:26.553Z,93.82
2018-12-03T04:37:54.690Z,93.43
2018-12-03T04:40:22.812Z,94.08
2018-12-03T04:42:51.291Z,93.97
2018-12-03T04:45:19.588Z,94.23
2018-12-03T04:47:48.935Z,94.41
2018-12-03T04:50:18.767Z,93.66
2018-12-03T04:52:47.040Z,93.68
2018-12-03T04:55:17.480Z,93.86
2018-12-03T04:57:45.735Z,93.42
2018-12-03T05:00:14.925Z,93.79
2018-12-03T05:02:44.120Z,94.09
2018-12-03T05:05:12.297Z,94.67
2018-12-03T05:07:40.680Z,94.55
2018-12-03T05:10:12.962Z,94.74
2018-12-03T05:12:41.165Z,94.82
2018-12-03T05:15:11.870Z,94.09
2018-12-03T05:17:40.267Z,93.22
2018-12-03T05:20:11.156Z,93.14
2018-12-03T05:22:39.368Z,93.31
2018-12-03T05:25:08.897Z,93.87
2018-12-03T05:27:37.180Z,93.66
2018-12-03T05:30:09.227Z,93.99
2018-12-03T05:32:37.707Z,94.27
2018-12-03T05:35:09.477Z,93.54
2018-12-03T05:37:37.858Z,93.80
2018-12-03T05:40:16.257Z,93.74
2018-12-03T05:42:44.545Z,94.38
2018-12-03T05:45:12.675Z,94.20
2018-12-03T05:47:41.087Z,94.68
2018-12-03T05:50:11.663Z,93.92
2018-12-03T05:52:41.123Z,94.48
2018-12-03T05:55:14.533Z,94.85
2018-12-03T05:57:42.923Z,94.71
2018-12-03T06:00:16.368Z,94.74
2018-12-03T06:02:44.578Z,94.92
2018-12-03T06:05:13.468Z,94.76
2018-12-03T06:07:41.458Z,94.45
2018-12-03T06:10:13.806Z,94.61
2018-12-03T06:12:42.803Z,93.85
2018-12-03T06:15:12.136Z,94.07
2018-12-03T06:17:40.326Z,93.93
2018-12-03T06:20:12.769Z,94.13
2018-12-03T06:22:40.851Z,93.92
2018-12-03T06:25:17.332Z,94.30
2018-12-03T06:30:38.716Z,93.87
2018-12-03T07:07:45.919Z,95.17
2018-12-03T07:10:18.109Z,94.39
2018-12-03T07:12:47.429Z,93.39
2018-12-03T07:15:20.072Z,92.26
2018-12-03T07:17:48.774Z,92.45
2018-12-03T07:20:16.835Z,92.42
2018-12-03T07:22:44.836Z,92.78
2018-12-03T07:25:13.023Z,92.47
2018-12-03T07:27:41.057Z,92.73
2018-12-03T07:30:15.558Z,92.72
2018-12-03T07:32:55.972Z,93.22
2018-12-03T07:35:24.342Z,92.31
2018-12-03T07:37:54.595Z,92.32
2018-12-03T07:40:22.734Z,92.51
2018-12-03T07:42:50.804Z,92.75
2018-12-03T07:45:20.617Z,92.86
2018-12-03T07:47:48.872Z,93.08
2018-12-03T07:50:18.072Z,93.60
2018-12-03T07:52:50.637Z,93.19
2018-12-03T07:55:21.382Z,93.38
2018-12-03T07:57:53.457Z,93.42
2018-12-03T08:00:27.181Z,93.32
2018-12-03T08:02:55.182Z,92.92
2018-12-03T08:05:24.182Z,93.05
2018-12-03T08:07:52.237Z,92.73
2018-12-03T08:10:20.422Z,92.34
2018-12-03T08:12:49.422Z,91.42
2018-12-03T08:15:18.794Z,91.49
2018-12-03T08:17:51.694Z,91.54
2018-12-03T08:20:23.059Z,91.59
2018-12-03T08:22:53.118Z,91.39
2018-12-03T08:25:22.254Z,91.17
2018-12-03T08:27:50.253Z,91.50
2018-12-03T08:30:18.278Z,91.65
2018-12-03T08:32:46.482Z,91.39
2018-12-03T08:35:16.325Z,91.58
2018-12-03T08:37:44.414Z,91.08
2018-12-03T08:40:16.204Z,91.32
2018-12-03T08:42:46.509Z,91.80
2018-12-03T08:45:22.612Z,91.60
2018-12-03T08:47:50.839Z,92.04
2018-12-03T08:50:25.300Z,92.31
2018-12-03T08:53:03.224Z,91.87
2018-12-03T08:55:34.612Z,92.33
2018-12-03T08:58:02.976Z,92.18
2018-12-03T09:00:31.791Z,92.38
2018-12-03T09:03:09.396Z,90.75
2018-12-03T09:05:38.630Z,91.08
2018-12-03T09:08:09.136Z,90.25
2018-12-03T09:10:37.794Z,90.33
2018-12-03T09:13:14.408Z,91.09
2018-12-03T09:15:43.254Z,90.84
2018-12-03T09:18:12.644Z,90.22
2018-12-03T09:20:40.839Z,90.00
2018-12-03T09:23:09.149Z,89.20
2018-12-03T09:25:37.592Z,88.07
2018-12-03T09:28:05.874Z,87.19
2018-12-03T09:30:34.124Z,86.53
2018-12-03T09:33:02.350Z,87.01
2018-12-03T09:35:30.418Z,86.67
2018-12-03T09:37:58.409Z,86.80
2018-12-03T09:40:28.602Z,87.09
2018-12-03T09:42:56.663Z,86.75
2018-12-03T09:45:25.327Z,86.34
2018-12-03T09:47:54.476Z,86.34
2018-12-03T09:50:29.103Z,86.15
2018-12-03T09:52:58.130Z,85.45
2018-12-03T09:55:33.915Z,85.18
2018-12-03T09:58:07.647Z,85.92
2018-12-03T10:00:35.899Z,86.08
2018-12-03T10:03:13.693Z,85.97
2018-12-03T10:06:02.952Z,85.94
2018-12-03T10:08:31.566Z,85.64
2018-12-03T10:11:16.897Z,85.06
2018-12-03T10:13:44.989Z,84.58
2018-12-03T10:16:18.634Z,85.17
2018-12-03T10:18:51.477Z,84.75
2018-12-03T10:21:19.662Z,84.13
2018-12-03T10:23:49.708Z,83.58
2018-12-03T10:26:17.787Z,83.14
2018-12-03T10:28:46.028Z,83.35
2018-12-03T10:31:15.481Z,83.16
2018-12-03T10:33:44.409Z,82.71
2018-12-03T10:36:13.723Z,82.75
2018-12-03T10:38:44.494Z,82.52
2018-12-03T10:41:30.432Z,82.78
2018-12-03T10:44:01.576Z,82.79
2018-12-03T10:46:30.039Z,82.70
2018-12-03T10:49:04.642Z,82.04
2018-12-03T10:51:32.924Z,81.21
2018-12-03T10:54:01.947Z,81.06
2018-12-03T10:56:30.246Z,81.96
2018-12-03T10:58:58.592Z,80.53
2018-12-03T11:01:31.338Z,80.16
2018-12-03T11:04:01.191Z,79.74
2018-12-03T11:06:29.620Z,80.66
2018-12-03T11:09:00.647Z,79.78
2018-12-03T11:11:29.200Z,79.55
2018-12-03T11:14:06.959Z,79.76
2018-12-03T11:16:37.340Z,79.12
2018-12-03T11:19:08.208Z,79.19
2018-12-03T11:21:36.520Z,79.17
2018-12-03T11:24:06.947Z,77.26
2018-12-03T11:26:40.647Z,77.61
2018-12-03T11:29:10.431Z,77.76
2018-12-03T11:31:40.047Z,78.59
2018-12-03T11:34:08.309Z,78.11
2018-12-03T11:36:44.949Z,78.03
2018-12-03T11:39:55.360Z,79.39
2018-12-03T11:42:25.759Z,78.55
2018-12-03T11:44:55.177Z,78.43
2018-12-03T11:47:23.660Z,78.85
2018-12-03T11:49:51.927Z,78.91
2018-12-03T11:52:20.928Z,79.06
2018-12-03T11:54:49.679Z,79.09
2018-12-03T11:57:18.040Z,78.58
2018-12-03T11:59:46.948Z,78.96
2018-12-03T12:02:15.228Z,78.72
2018-12-03T12:04:45.071Z,78.90
2018-12-03T12:07:13.307Z,79.36
2018-12-03T12:09:41.708Z,79.67
2018-12-03T12:12:12.008Z,79.71
2018-12-03T12:14:40.411Z,79.61
2018-12-03T12:17:08.768Z,79.59
2018-12-03T12:19:37.272Z,80.17
2018-12-03T12:22:06.368Z,79.19
2018-12-03T12:24:34.728Z,80.21
2018-12-03T12:27:04.387Z,78.60
2018-12-03T12:29:32.847Z,78.50
2018-12-03T12:32:05.487Z,78.75
2018-12-03T12:34:34.048Z,77.62
2018-12-03T12:37:03.647Z,78.42
2018-12-03T12:39:35.228Z,78.09
2018-12-03T12:42:03.647Z,77.98
2018-12-03T12:44:32.127Z,77.53
2018-12-03T12:47:07.058Z,77.66
2018-12-03T12:49:37.835Z,77.09
2018-12-03T12:52:07.967Z,77.28
2018-12-03T12:54:38.747Z,77.58
2018-12-03T12:57:07.247Z,77.08
2018-12-03T12:59:35.487Z,77.07
2018-12-03T13:02:04.067Z,77.28
2018-12-03T13:04:32.267Z,77.32
2018-12-03T13:07:02.208Z,77.33
2018-12-03T13:09:30.587Z,76.93
2018-12-03T13:11:59.066Z,77.05
2018-12-03T13:14:30.281Z,78.02
2018-12-03T13:16:59.797Z,77.62
2018-12-03T13:19:43.998Z,78.01
2018-12-03T13:22:12.417Z,78.13
2018-12-03T13:24:40.878Z,78.66
2018-12-03T13:30:13.301Z,78.36
2018-12-03T13:32:41.758Z,78.13
2018-12-03T13:35:18.898Z,79.27
2018-12-03T13:37:56.598Z,79.31
2018-12-03T13:40:28.209Z,78.68
2018-12-03T13:43:02.706Z,79.54
2018-12-03T13:45:36.518Z,78.81
2018-12-03T13:48:05.078Z,79.06
2018-12-03T13:50:33.628Z,78.64
2018-12-03T13:53:04.138Z,78.54
2018-12-03T13:55:32.906Z,78.84
2018-12-03T13:58:01.241Z,79.01
2018-12-03T14:00:29.966Z,78.88
2018-12-03T14:03:00.798Z,79.48
2018-12-03T14:05:32.437Z,79.16
2018-12-03T14:09:17.318Z,79.09
2018-12-03T14:14:02.477Z,80.15
2018-12-03T14:16:50.238Z,79.88
2018-12-03T14:19:22.925Z,80.27
2018-12-03T14:21:58.437Z,79.94
2018-12-03T14:24:26.757Z,79.40
2018-12-03T14:26:55.679Z,79.77
2018-12-03T14:29:23.898Z,79.60
2018-12-03T14:31:52.677Z,79.19
2018-12-03T14:34:27.064Z,79.67
2018-12-03T14:36:54.699Z,79.96
2018-12-03T14:39:22.957Z,80.11
2018-12-03T14:41:51.466Z,80.09
2018-12-03T14:44:20.145Z,80.42
2018-12-03T14:46:48.565Z,80.41
2018-12-03T14:49:16.772Z,82.55
2018-12-03T14:51:45.725Z,83.17
2018-12-03T14:54:14.165Z,83.21
2018-12-03T14:56:43.145Z,83.59
2018-12-03T14:59:11.405Z,83.64
2018-12-03T15:01:39.825Z,83.44
2018-12-03T15:04:17.765Z,84.02
2018-12-03T15:06:46.145Z,85.54
2018-12-03T15:09:14.525Z,86.00
2018-12-03T15:11:42.945Z,86.40
2018-12-03T15:14:11.385Z,87.00
2018-12-03T15:16:39.985Z,87.08
2018-12-03T15:19:11.582Z,87.91
2018-12-03T15:21:36.907Z,88.08
2018-12-03T15:24:05.365Z,88.19
2018-12-03T15:26:33.846Z,89.03
2018-12-03T15:29:06.845Z,89.19
2018-12-03T15:31:35.105Z,89.21
2018-12-03T15:34:03.866Z,88.82
2018-12-03T15:36:32.165Z,89.76
2018-12-03T15:39:00.765Z,89.57
2018-12-03T15:41:29.145Z,88.95
2018-12-03T15:43:57.485Z,89.09
2018-12-03T15:46:26.006Z,88.71
2018-12-03T15:48:54.705Z,88.74
2018-12-03T15:51:23.045Z,88.19
2018-12-03T15:53:51.345Z,88.14
2018-12-03T15:56:19.627Z,88.08
2018-12-03T15:58:48.545Z,88.54
2018-12-03T16:01:16.745Z,88.28
2018-12-03T16:03:45.226Z,88.20
2018-12-03T16:06:13.845Z,87.84
2018-12-03T16:08:42.388Z,88.32
2018-12-03T16:11:11.208Z,87.88
2018-12-03T16:13:46.328Z,87.97
2018-12-03T16:16:14.665Z,88.34
2018-12-03T16:18:44.145Z,88.13
2018-12-03T16:21:15.405Z,87.90
2018-12-03T16:23:47.345Z,87.72
2018-12-03T16:26:21.505Z,87.28
2018-12-03T16:28:50.045Z,87.36
2018-12-03T16:31:18.605Z,87.07
2018-12-03T16:33:48.065Z,87.29
2018-12-03T16:36:24.606Z,86.93
2018-12-03T16:38:57.545Z,86.89
2018-12-03T16:41:26.146Z,87.03
2018-12-03T16:43:57.153Z,86.66
2018-12-03T16:46:26.725Z,86.79
2018-12-03T16:48:56.251Z,86.86
2018-12-03T16:51:25.026Z,86.11
2018-12-03T16:53:54.049Z,86.39
2018-12-03T16:56:22.805Z,86.17
2018-12-03T16:58:51.225Z,86.31
2018-12-03T17:01:19.586Z,85.77
2018-12-03T17:03:47.848Z,86.18
2018-12-03T17:06:16.229Z,86.31
2018-12-03T17:08:44.688Z,85.79
2018-12-03T17:11:12.926Z,86.15
2018-12-03T17:13:41.285Z,86.21
2018-12-03T17:16:09.586Z,86.94
2018-12-03T17:18:38.065Z,86.75
2018-12-03T17:21:11.546Z,87.16
2018-12-03T17:24:16.712Z,87.48
2018-12-03T17:26:45.026Z,87.42
2018-12-03T17:29:13.728Z,88.18
2018-12-03T17:31:42.125Z,87.98
2018-12-03T17:34:10.449Z,88.42
2018-12-03T17:36:39.106Z,88.58
2018-12-03T17:39:08.206Z,89.28
2018-12-03T17:41:37.265Z,89.34
2018-12-03T17:44:06.811Z,89.02
2018-12-03T17:46:35.408Z,89.30
2018-12-03T17:49:04.166Z,89.04
2018-12-03T17:51:33.526Z,89.40
2018-12-03T17:54:02.226Z,89.19
2018-12-03T17:56:30.806Z,89.29
2018-12-03T17:58:59.386Z,89.37
2018-12-03T18:01:27.926Z,89.45
2018-12-03T18:03:56.486Z,89.51
2018-12-03T18:06:24.806Z,89.96
2018-12-03T18:08:53.466Z,89.38
2018-12-03T18:11:21.866Z,89.33
2018-12-03T18:13:50.661Z,89.08
2018-12-03T18:16:19.438Z,89.17
2018-12-03T18:18:48.027Z,90.10
2018-12-03T18:21:16.978Z,90.18
2018-12-03T18:23:45.778Z,89.87
2018-12-03T18:26:14.338Z,90.40
2018-12-03T18:28:58.898Z,90.45
2018-12-03T18:31:27.506Z,90.36
2018-12-03T18:33:56.126Z,90.15
2018-12-03T18:42:58.211Z,89.83
2018-12-03T18:45:27.459Z,89.76
2018-12-03T18:47:56.135Z,89.75
2018-12-03T18:50:28.960Z,89.51
2018-12-03T18:52:57.459Z,89.47
2018-12-03T18:55:26.599Z,89.25
2018-12-03T18:58:00.059Z,89.28
2018-12-03T19:00:28.887Z,89.21
2018-12-03T19:02:57.507Z,88.50
2018-12-03T19:05:26.259Z,88.92
2018-12-03T19:07:54.998Z,88.81
2018-12-03T19:10:23.679Z,88.73
2018-12-03T19:12:52.219Z,88.46
2018-12-03T19:15:20.879Z,88.81
2018-12-03T19:17:49.619Z,88.77
2018-12-03T19:20:18.338Z,88.66
2018-12-03T19:22:47.018Z,88.74
2018-12-03T19:25:15.720Z,89.03
2018-12-03T19:27:44.379Z,89.47
2018-12-03T19:30:14.667Z,89.77
2018-12-03T19:32:43.319Z,90.62
2018-12-03T19:35:12.219Z,90.15
2018-12-03T19:37:40.879Z,90.53
2018-12-03T19:40:09.559Z,90.45
2018-12-03T19:42:38.267Z,90.65
2018-12-03T19:45:08.347Z,90.47
2018-12-03T19:47:37.212Z,90.38
2018-12-03T19:50:07.446Z,90.17
2018-12-03T19:52:36.687Z,90.15
2018-12-03T19:55:07.607Z,90.44
2018-12-03T19:57:37.127Z,90.44
2018-12-03T20:00:11.767Z,90.17
2018-12-03T20:02:58.007Z,90.78
2018-12-03T20:05:26.807Z,90.75
2018-12-03T20:07:57.940Z,90.16
2018-12-03T20:10:26.967Z,89.91
2018-12-03T20:12:56.766Z,90.52
2018-12-03T20:15:25.547Z,90.28
2018-12-03T20:17:54.529Z,90.66
2018-12-03T20:20:30.807Z,90.94
2018-12-03T20:23:03.127Z,91.27
2018-12-03T20:25:49.086Z,91.79
2018-12-03T20:28:23.367Z,91.79
2018-12-03T20:31:03.279Z,92.00
2018-12-03T20:33:45.938Z,91.48
2018-12-03T20:36:35.847Z,91.48
2018-12-03T20:39:26.546Z,91.53
2018-12-03T20:41:59.098Z,91.55
2018-12-03T20:44:34.018Z,91.59
2018-12-03T20:47:09.159Z,91.28
2018-12-03T20:50:00.986Z,91.25
2018-12-03T20:52:31.106Z,91.31
2018-12-03T20:55:08.906Z,90.85
2018-12-03T20:57:37.738Z,90.85
2018-12-03T21:00:07.298Z,90.58
2018-12-03T21:02:35.978Z,90.47
2018-12-03T21:05:04.646Z,90.27
2018-12-03T21:07:34.418Z,90.12
2018-12-03T21:10:03.125Z,90.24
2018-12-03T21:12:31.839Z,89.65
2018-12-03T21:15:01.079Z,89.23
2018-12-03T21:17:29.818Z,89.44
2018-12-03T21:20:14.358Z,89.13
2018-12-03T21:22:42.981Z,89.25
2018-12-03T21:25:11.628Z,88.95
2018-12-03T21:27:40.358Z,88.79
2018-12-03T21:30:10.539Z,89.28
2018-12-03T21:32:39.240Z,89.57
2018-12-03T21:35:08.246Z,88.82
2018-12-03T21:37:37.081Z,89.38
2018-12-03T21:40:07.359Z,89.21
2018-12-03T21:42:36.160Z,89.51
2018-12-03T21:45:05.367Z,89.39
2018-12-03T21:47:33.987Z,89.86
2018-12-03T21:50:05.218Z,89.42
2018-12-03T21:52:31.619Z,89.20
2018-12-03T21:55:02.125Z,89.50
2018-12-03T21:57:30.718Z,89.42
2018-12-03T21:59:59.099Z,89.47
2018-12-03T22:02:28.187Z,89.02
2018-12-03T22:04:56.727Z,88.51
2018-12-03T22:07:25.987Z,89.00
2018-12-03T22:09:54.387Z,89.47
2018-12-03T22:12:22.767Z,89.40
2018-12-03T22:14:51.180Z,89.00
2018-12-03T22:17:19.619Z,89.13
2018-12-03T22:19:49.319Z,88.90
2018-12-03T22:22:17.859Z,88.92
2018-12-03T22:24:46.119Z,89.04
2018-12-03T22:27:14.499Z,88.90
2018-12-03T22:29:42.999Z,88.61
2018-12-03T22:32:11.279Z,88.69
2018-12-03T22:34:39.567Z,88.74
2018-12-03T22:37:07.693Z,88.64
2018-12-03T22:39:36.089Z,88.58
2018-12-03T22:42:04.247Z,89.05
2018-12-03T22:44:32.507Z,89.18
2018-12-03T22:47:06.559Z,89.78
2018-12-03T22:49:34.887Z,89.69
2018-12-03T22:52:03.067Z,90.01
2018-12-03T22:54:31.347Z,89.66
2018-12-03T22:56:59.839Z,90.81
2018-12-03T22:59:29.738Z,90.59
2018-12-03T23:01:58.287Z,91.16
2018-12-03T23:04:26.627Z,91.88
2018-12-03T23:06:55.975Z,91.95
2018-12-03T23:09:24.947Z,92.42
2018-12-03T23:11:53.227Z,92.97
2018-12-03T23:14:21.566Z,92.68
2018-12-03T23:16:49.888Z,92.88
2018-12-03T23:19:18.147Z,93.13
2018-12-03T23:21:46.307Z,93.19
2018-12-03T23:24:14.526Z,93.23
2018-12-03T23:26:42.687Z,93.52
2018-12-03T23:29:10.948Z,93.33
2018-12-03T23:31:39.286Z,93.21
2018-12-03T23:34:07.465Z,93.58
2018-12-03T23:36:35.746Z,93.37
2018-12-03T23:39:04.986Z,91.67
2018-12-03T23:41:33.606Z,91.03
2018-12-03T23:44:03.946Z,91.02
2018-12-03T23:46:32.147Z,90.32
2018-12-03T23:49:01.907Z,90.56
2018-12-03T23:51:35.913Z,90.78
2018-12-03T23:53:58.666Z,91.07
2018-12-03T23:56:26.846Z,91.64
2018-12-03T23:58:55.146Z,91.53
